Terminal Aerodrome Forecast
Issued by NWS Atlanta, GA

Home | Current Version | Previous Version | Text Only | Print | Product List | Glossary On
Versions: 1 2 3 4 5 6 7 8 9 10 11 12 13 14 15 16 17 18 19 20 21 22 23 24 25 26 27 28 29 30 31 32 33 34 35 36 37 38
000
FTUS42 KFFC 231900 AAA
TAFATL
TAF AMD
KATL 231952Z 2320/2424 33012G18KT P6SM SKC
     FM232300 32007KT P6SM SKC
     FM240700 02004KT P6SM SKC
     FM241400 10008KT P6SM SKC
     FM241800 16010KT P6SM SCT040=

USA.gov is the U.S. government's official web portal to all federal, state and local government web resources and services.